createdAt,value
2022-12-04T00:00:49.814Z,21.10
2022-12-04T00:03:54.456Z,22.25
2022-12-04T00:06:59.286Z,19.63
2022-12-04T00:10:03.253Z,20.88
2022-12-04T00:13:06.839Z,21.90
2022-12-04T00:16:13.689Z,24.15
2022-12-04T00:19:17.294Z,24.58
2022-12-04T00:22:21.994Z,20.45
2022-12-04T00:25:25.278Z,19.67
2022-12-04T00:28:28.931Z,20.35
2022-12-04T00:31:32.716Z,24.38
2022-12-04T00:34:36.020Z,22.63
2022-12-04T00:37:40.619Z,22.77
2022-12-04T00:40:50.586Z,22.55
2022-12-04T00:43:53.941Z,22.60
2022-12-04T00:46:57.238Z,24.90
2022-12-04T00:50:00.490Z,27.02
2022-12-04T00:53:05.619Z,22.40
2022-12-04T00:56:11.999Z,22.02
2022-12-04T00:59:15.268Z,26.25
2022-12-04T01:02:18.798Z,22.17
2022-12-04T01:05:23.024Z,24.77
2022-12-04T01:08:27.936Z,25.88
2022-12-04T01:11:32.703Z,25.77
2022-12-04T01:14:38.044Z,19.98
2022-12-04T01:17:41.372Z,22.23
2022-12-04T01:20:48.606Z,24.38
2022-12-04T01:23:54.017Z,22.77
2022-12-04T01:26:57.281Z,19.83
2022-12-04T01:30:00.810Z,23.25
2022-12-04T01:33:04.119Z,21.40
2022-12-04T01:36:09.797Z,19.85
2022-12-04T01:39:14.422Z,23.92
2022-12-04T01:42:18.387Z,20.73
2022-12-04T01:45:47.284Z,25.58
2022-12-04T01:48:53.457Z,21.48
2022-12-04T01:52:00.313Z,23.02
2022-12-04T01:55:05.349Z,24.65
2022-12-04T01:58:10.031Z,25.13
2022-12-04T02:01:13.607Z,22.50
2022-12-04T02:04:16.935Z,27.25
2022-12-04T02:07:20.918Z,19.55
2022-12-04T02:10:36.027Z,24.00
2022-12-04T02:13:48.265Z,19.90
2022-12-04T02:17:00.258Z,23.67
2022-12-04T02:20:26.212Z,22.15
2022-12-04T02:23:47.846Z,21.13
2022-12-04T02:26:59.971Z,25.70
2022-12-04T02:30:07.467Z,22.50
2022-12-04T02:33:20.460Z,24.95
2022-12-04T02:36:28.424Z,22.27
2022-12-04T02:39:37.088Z,22.52
2022-12-04T02:42:43.360Z,23.83
2022-12-04T02:45:54.499Z,24.05
2022-12-04T02:49:03.159Z,21.20
2022-12-04T02:52:11.231Z,22.20
2022-12-04T02:58:26.547Z,21.65
2022-12-04T03:01:35.586Z,22.10
2022-12-04T03:04:41.062Z,16.80
2022-12-04T03:07:50.322Z,23.02
2022-12-04T03:10:57.524Z,20.25
2022-12-04T03:14:09.391Z,22.23
2022-12-04T03:17:18.341Z,22.25
2022-12-04T03:20:23.203Z,25.15
2022-12-04T03:23:32.298Z,19.33
2022-12-04T03:26:39.912Z,22.23
2022-12-04T03:29:47.579Z,20.60
2022-12-04T03:32:57.208Z,24.45
2022-12-04T03:36:09.269Z,21.33
2022-12-04T03:39:19.106Z,24.23
2022-12-04T03:42:26.692Z,22.40
2022-12-04T03:45:37.337Z,17.08
2022-12-04T03:48:46.483Z,18.88
2022-12-04T03:51:56.148Z,23.90
2022-12-04T03:55:03.085Z,18.63
2022-12-04T03:58:12.201Z,23.55
2022-12-04T04:01:19.277Z,23.52
2022-12-04T04:04:29.288Z,19.67
2022-12-04T04:07:37.276Z,20.17
2022-12-04T04:10:41.970Z,25.27
2022-12-04T04:14:12.293Z,19.55
2022-12-04T04:17:39.194Z,20.40
2022-12-04T04:21:09.222Z,17.15
2022-12-04T04:24:23.045Z,20.63
2022-12-04T04:27:26.264Z,22.33
2022-12-04T04:30:33.088Z,16.88
2022-12-04T04:35:01.621Z,22.10
2022-12-04T04:38:11.073Z,18.45
2022-12-04T04:41:20.687Z,18.60
2022-12-04T04:44:30.273Z,19.90
2022-12-04T04:47:38.067Z,17.23
2022-12-04T04:50:43.640Z,16.08
2022-12-04T04:53:49.127Z,19.52
2022-12-04T04:56:52.988Z,19.80
2022-12-04T04:59:56.940Z,20.25
2022-12-04T05:03:00.953Z,21.63
2022-12-04T05:06:06.322Z,19.35
2022-12-04T05:09:09.578Z,15.80
2022-12-04T05:12:12.960Z,17.70
2022-12-04T05:15:16.542Z,17.75
2022-12-04T05:18:19.896Z,18.42
2022-12-04T05:21:23.567Z,19.90
2022-12-04T05:24:26.997Z,16.25
2022-12-04T05:27:31.568Z,17.33
2022-12-04T05:30:35.676Z,19.92
2022-12-04T05:33:38.975Z,20.17
2022-12-04T05:36:43.598Z,19.63
2022-12-04T05:39:46.997Z,17.88
2022-12-04T05:42:50.249Z,20.30
2022-12-04T05:45:53.914Z,20.17
2022-12-04T05:48:58.618Z,16.23
2022-12-04T05:52:06.419Z,19.13
2022-12-04T05:55:09.941Z,19.10
2022-12-04T05:58:13.325Z,17.98
2022-12-04T06:01:18.837Z,18.90
2022-12-04T06:04:22.238Z,21.27
2022-12-04T06:07:27.852Z,17.50
2022-12-04T06:10:31.617Z,20.10
2022-12-04T06:13:34.818Z,19.63
2022-12-04T06:16:41.106Z,15.63
2022-12-04T06:19:44.660Z,17.63
2022-12-04T06:22:49.222Z,14.98
2022-12-04T06:25:52.421Z,18.58
2022-12-04T06:28:56.878Z,19.80
2022-12-04T06:32:00.477Z,20.90
2022-12-04T06:35:04.242Z,20.55
2022-12-04T06:38:10.228Z,17.42
2022-12-04T06:41:15.837Z,18.77
2022-12-04T06:44:19.453Z,18.67
2022-12-04T06:47:23.019Z,18.70
2022-12-04T06:50:26.301Z,19.73
2022-12-04T06:53:32.497Z,17.88
2022-12-04T06:56:36.073Z,19.00
2022-12-04T06:59:39.453Z,19.55
2022-12-04T07:02:43.022Z,21.20
2022-12-04T07:05:46.535Z,16.83
2022-12-04T07:08:53.380Z,24.85
2022-12-04T07:11:56.646Z,20.63
2022-12-04T07:15:00.094Z,20.10
2022-12-04T07:18:06.109Z,20.52
2022-12-04T07:21:11.809Z,19.73
2022-12-04T07:24:18.156Z,20.63
2022-12-04T07:27:21.390Z,25.98
2022-12-04T07:30:24.718Z,23.80
2022-12-04T07:33:27.966Z,25.45
2022-12-04T07:36:31.294Z,19.17
2022-12-04T07:39:36.282Z,25.27
2022-12-04T07:42:39.685Z,22.27
2022-12-04T07:45:43.022Z,20.00
2022-12-04T07:48:47.526Z,19.58
2022-12-04T07:51:50.800Z,20.75
2022-12-04T07:54:55.581Z,22.83
2022-12-04T07:57:58.970Z,21.27
2022-12-04T08:01:09.993Z,19.85
2022-12-04T08:04:13.645Z,19.02
2022-12-04T08:07:17.010Z,19.63
2022-12-04T08:10:21.770Z,50.20
2022-12-04T08:13:25.306Z,17.83
2022-12-04T08:16:30.149Z,44.60
2022-12-04T08:19:33.489Z,87.93
2022-12-04T08:22:36.879Z,40.97
2022-12-04T08:25:42.129Z,26.85
2022-12-04T08:28:46.188Z,36.22
2022-12-04T08:31:52.890Z,22.08
2022-12-04T08:34:56.843Z,67.68
2022-12-04T08:38:00.291Z,22.13
2022-12-04T08:41:06.706Z,25.98
2022-12-04T08:44:10.640Z,26.70
2022-12-04T08:47:14.964Z,162.32
2022-12-04T08:50:18.428Z,88.43
2022-12-04T08:53:23.940Z,18.30
2022-12-04T08:56:30.053Z,18.60
2022-12-04T08:59:33.902Z,22.30
2022-12-04T09:02:37.153Z,22.60
2022-12-04T09:05:41.560Z,19.60
2022-12-04T09:08:45.095Z,15.07
2022-12-04T09:11:49.800Z,16.02
2022-12-04T09:14:53.138Z,22.60
2022-12-04T09:17:56.456Z,23.35
2022-12-04T09:21:01.628Z,20.45
2022-12-04T09:24:05.343Z,22.33
2022-12-04T09:27:14.659Z,17.90
2022-12-04T09:30:18.551Z,15.60
2022-12-04T09:33:21.790Z,17.55
2022-12-04T09:36:25.058Z,18.27
2022-12-04T09:39:28.327Z,16.33
2022-12-04T09:46:07.823Z,20.10
2022-12-04T09:49:15.433Z,21.00
2022-12-04T09:52:31.924Z,16.65
2022-12-04T09:55:38.504Z,18.70
2022-12-04T09:58:48.015Z,18.13
2022-12-04T10:01:59.772Z,31.05
2022-12-04T10:05:03.673Z,16.38
2022-12-04T10:08:18.061Z,14.43
2022-12-04T10:11:31.999Z,15.70
2022-12-04T10:14:52.192Z,15.85
2022-12-04T10:18:11.134Z,16.30
2022-12-04T10:21:28.195Z,16.55
2022-12-04T10:24:42.963Z,15.48
2022-12-04T10:27:50.934Z,13.82
2022-12-04T10:34:57.904Z,13.07
2022-12-04T10:38:05.854Z,15.73
2022-12-04T10:44:21.422Z,15.07
2022-12-04T10:47:26.337Z,16.95
2022-12-04T10:50:30.942Z,14.88
2022-12-04T10:53:38.139Z,13.75
2022-12-04T10:56:52.107Z,14.97
2022-12-04T10:59:57.784Z,13.70
2022-12-04T11:03:03.261Z,14.85
2022-12-04T11:06:11.320Z,15.10
2022-12-04T11:12:25.998Z,14.32
2022-12-04T11:15:30.015Z,16.42
2022-12-04T11:18:35.519Z,13.88
2022-12-04T11:21:40.347Z,13.23
2022-12-04T11:24:50.630Z,12.52
2022-12-04T11:27:56.750Z,11.90
2022-12-04T11:31:03.021Z,13.45
2022-12-04T11:34:09.408Z,13.82
2022-12-04T11:37:22.384Z,13.13
2022-12-04T11:40:27.706Z,13.90
2022-12-04T11:43:34.222Z,11.50
2022-12-04T11:46:38.072Z,16.85
2022-12-04T11:49:43.956Z,13.13
2022-12-04T11:53:02.723Z,12.77
2022-12-04T11:59:41.403Z,15.10
2022-12-04T12:03:04.157Z,13.80
2022-12-04T12:06:19.909Z,20.35
2022-12-04T12:09:31.324Z,19.70
2022-12-04T12:12:45.864Z,14.38
2022-12-04T12:15:58.775Z,25.95
2022-12-04T12:19:18.720Z,17.15
2022-12-04T12:22:48.379Z,16.30
2022-12-04T12:26:02.307Z,20.75
2022-12-04T12:29:22.018Z,59.17
2022-12-04T12:32:54.409Z,25.33
2022-12-04T12:36:04.400Z,17.73
2022-12-04T12:39:16.082Z,24.17
2022-12-04T12:42:26.149Z,16.35
2022-12-04T12:45:36.934Z,43.17
2022-12-04T12:48:47.301Z,35.85
2022-12-04T12:51:55.852Z,16.00
2022-12-04T12:55:03.693Z,28.02
2022-12-04T13:01:20.762Z,23.50
2022-12-04T13:04:32.872Z,16.35
2022-12-04T13:07:46.753Z,15.65
2022-12-04T13:10:54.880Z,16.85
2022-12-04T13:17:07.187Z,14.70
2022-12-04T13:20:19.871Z,15.35
2022-12-04T13:23:40.474Z,15.60
2022-12-04T13:26:52.146Z,14.10
2022-12-04T13:30:17.084Z,15.75
2022-12-04T13:33:51.286Z,14.20
2022-12-04T13:37:36.137Z,15.43
2022-12-04T13:40:42.053Z,20.50
2022-12-04T13:43:50.286Z,12.00
2022-12-04T13:46:58.313Z,14.40
2022-12-04T13:50:28.353Z,14.93
2022-12-04T13:53:33.920Z,18.35
2022-12-04T13:56:37.390Z,24.92
2022-12-04T13:59:41.809Z,13.73
2022-12-04T14:02:52.520Z,16.38
2022-12-04T14:05:56.954Z,17.77
2022-12-04T14:09:03.681Z,17.25
2022-12-04T14:12:11.708Z,17.08
2022-12-04T14:15:23.221Z,17.20
2022-12-04T14:18:30.401Z,16.35
2022-12-04T14:21:41.125Z,16.13
2022-12-04T14:24:44.496Z,16.92
2022-12-04T14:27:51.808Z,17.90
2022-12-04T14:31:15.864Z,14.70
2022-12-04T14:34:29.251Z,15.02
2022-12-04T14:37:37.508Z,18.83
2022-12-04T14:40:46.361Z,16.50
2022-12-04T14:43:50.343Z,17.45
2022-12-04T14:46:56.425Z,15.48
2022-12-04T14:50:15.092Z,15.98
2022-12-04T14:53:31.511Z,15.93
2022-12-04T14:56:48.337Z,14.75
2022-12-04T14:59:53.966Z,30.35
2022-12-04T15:03:00.790Z,16.85
2022-12-04T15:06:09.938Z,16.70
2022-12-04T15:09:37.304Z,17.13
2022-12-04T15:12:45.852Z,18.27
2022-12-04T15:15:53.577Z,15.95
2022-12-04T15:18:57.822Z,21.95
2022-12-04T15:22:10.098Z,18.23
2022-12-04T15:25:19.520Z,19.10
2022-12-04T15:31:32.510Z,24.60
2022-12-04T15:34:39.788Z,18.23
2022-12-04T15:37:44.954Z,18.10
2022-12-04T15:40:53.895Z,21.00
2022-12-04T15:43:57.713Z,18.08
2022-12-04T15:47:03.254Z,20.88
2022-12-04T15:50:12.327Z,20.20
2022-12-04T15:53:22.490Z,21.73
2022-12-04T15:56:26.205Z,22.63
2022-12-04T15:59:32.259Z,18.90
2022-12-04T16:02:38.602Z,20.42
2022-12-04T16:05:42.248Z,19.05
2022-12-04T16:08:52.377Z,19.20
2022-12-04T16:12:01.219Z,20.05
2022-12-04T16:15:05.463Z,21.60
2022-12-04T16:18:15.676Z,20.83
2022-12-04T16:21:27.380Z,21.00
2022-12-04T16:24:32.492Z,19.85
2022-12-04T16:27:58.275Z,23.48
2022-12-04T16:34:59.209Z,22.25
2022-12-04T16:38:07.005Z,29.35
2022-12-04T16:41:32.944Z,49.35
2022-12-04T16:44:42.937Z,29.63
2022-12-04T16:47:53.012Z,20.13
2022-12-04T16:51:12.948Z,23.20
2022-12-04T16:54:20.068Z,24.30
2022-12-04T16:57:29.883Z,22.42
2022-12-04T17:00:45.278Z,22.70
2022-12-04T17:03:59.976Z,22.52
2022-12-04T17:07:13.902Z,20.88
2022-12-04T17:10:24.515Z,23.55
2022-12-04T17:13:40.958Z,24.45
2022-12-04T17:16:54.944Z,23.05
2022-12-04T17:20:18.428Z,21.35
2022-12-04T17:23:31.636Z,23.15
2022-12-04T17:26:40.570Z,22.70
2022-12-04T17:30:07.266Z,22.95
2022-12-04T17:33:17.438Z,26.02
2022-12-04T17:36:37.748Z,23.95
2022-12-04T17:39:48.085Z,25.83
2022-12-04T17:43:02.214Z,22.42
2022-12-04T17:46:13.106Z,26.35
2022-12-04T17:49:27.617Z,25.05
2022-12-04T17:52:33.276Z,26.75
2022-12-04T17:55:46.867Z,30.95
2022-12-04T17:59:09.844Z,29.90
2022-12-04T18:02:14.864Z,28.45
2022-12-04T18:05:18.098Z,37.03
2022-12-04T18:08:24.133Z,31.60
2022-12-04T18:11:31.342Z,27.58
2022-12-04T18:14:35.407Z,31.63
2022-12-04T18:17:41.332Z,28.98
2022-12-04T18:20:44.667Z,32.60
2022-12-04T18:23:50.547Z,27.23
2022-12-04T18:27:05.307Z,44.95
2022-12-04T18:30:13.519Z,30.80
2022-12-04T18:33:19.064Z,32.92
2022-12-04T18:36:26.321Z,36.20
2022-12-04T18:39:29.732Z,33.97
2022-12-04T18:42:41.745Z,29.73
2022-12-04T18:45:51.512Z,30.40
2022-12-04T18:49:03.473Z,36.00
2022-12-04T18:52:11.991Z,29.92
2022-12-04T18:55:28.413Z,28.50
2022-12-04T18:58:40.553Z,33.28
2022-12-04T19:01:55.262Z,48.45
2022-12-04T19:05:13.515Z,29.25
2022-12-04T19:08:19.938Z,31.70
2022-12-04T19:11:24.012Z,33.53
2022-12-04T19:14:29.691Z,33.58
2022-12-04T19:20:44.700Z,34.13
2022-12-04T19:23:53.851Z,36.75
2022-12-04T19:27:26.027Z,33.80
2022-12-04T19:30:34.571Z,29.88
2022-12-04T19:33:38.327Z,33.13
2022-12-04T19:36:42.621Z,107.93
2022-12-04T19:39:48.832Z,35.22
2022-12-04T19:43:01.159Z,34.55
2022-12-04T19:46:12.825Z,31.98
2022-12-04T19:49:16.467Z,35.80
2022-12-04T19:52:21.948Z,36.90
2022-12-04T19:55:31.449Z,38.22
2022-12-04T19:58:35.758Z,34.08
2022-12-04T20:01:46.200Z,39.47
2022-12-04T20:04:52.681Z,38.70
2022-12-04T20:11:05.127Z,33.92
2022-12-04T20:14:10.454Z,40.55
2022-12-04T20:17:16.703Z,39.90
2022-12-04T20:20:20.740Z,40.95
2022-12-04T20:23:41.155Z,34.95
2022-12-04T20:26:46.271Z,37.40
2022-12-04T20:29:51.797Z,38.78
2022-12-04T20:32:59.868Z,36.92
2022-12-04T20:36:03.449Z,40.67
2022-12-04T20:39:08.008Z,43.80
2022-12-04T20:42:12.052Z,44.28
2022-12-04T20:45:15.499Z,38.67
2022-12-04T20:48:43.024Z,43.90
2022-12-04T20:51:49.302Z,40.90
2022-12-04T20:54:55.192Z,47.00
2022-12-04T20:57:58.903Z,41.63
2022-12-04T21:01:07.108Z,46.50
2022-12-04T21:04:13.067Z,43.30
2022-12-04T21:07:18.623Z,50.65
2022-12-04T21:10:22.465Z,48.53
2022-12-04T21:13:45.565Z,53.45
2022-12-04T21:16:50.291Z,51.00
2022-12-04T21:19:56.627Z,45.53
2022-12-04T21:23:00.988Z,49.63
2022-12-04T21:26:04.878Z,48.63
2022-12-04T21:29:09.225Z,51.75
2022-12-04T21:32:12.511Z,47.85
2022-12-04T21:35:17.260Z,49.72
2022-12-04T21:38:20.671Z,44.10
2022-12-04T21:41:41.949Z,52.78
2022-12-04T21:44:45.192Z,46.80
2022-12-04T21:47:49.375Z,50.22
2022-12-04T21:50:54.878Z,48.60
2022-12-04T21:53:58.335Z,52.20
2022-12-04T21:57:01.826Z,50.92
2022-12-04T22:00:06.141Z,47.42
2022-12-04T22:03:09.406Z,48.65
2022-12-04T22:06:14.424Z,51.38
2022-12-04T22:09:18.762Z,47.92
2022-12-04T22:15:46.892Z,51.45
2022-12-04T22:18:50.273Z,53.63
2022-12-04T22:21:54.864Z,51.63
2022-12-04T22:25:01.480Z,52.33
2022-12-04T22:28:06.401Z,56.90
2022-12-04T22:34:53.546Z,50.17
2022-12-04T22:37:56.724Z,52.35
2022-12-04T22:41:01.245Z,52.72
2022-12-04T22:44:05.040Z,62.80
2022-12-04T22:47:08.791Z,50.38
2022-12-04T22:50:13.719Z,52.97
2022-12-04T22:53:16.893Z,53.95
2022-12-04T22:56:21.974Z,53.35
2022-12-04T22:59:25.572Z,47.95
2022-12-04T23:02:29.049Z,50.35
2022-12-04T23:05:35.515Z,53.63
2022-12-04T23:08:40.273Z,51.65
2022-12-04T23:11:44.259Z,55.92
2022-12-04T23:14:47.529Z,57.72
2022-12-04T23:17:51.096Z,63.65
2022-12-04T23:21:03.175Z,69.40
2022-12-04T23:24:07.226Z,67.88
2022-12-04T23:27:10.564Z,69.45
2022-12-04T23:30:14.129Z,72.40
2022-12-04T23:33:17.484Z,85.45
2022-12-04T23:36:22.765Z,87.72
2022-12-04T23:39:26.430Z,96.40
2022-12-04T23:42:31.786Z,96.57
2022-12-04T23:45:35.403Z,107.22
2022-12-04T23:48:39.229Z,102.95
2022-12-04T23:51:43.893Z,105.88
2022-12-04T23:54:50.656Z,94.85
2022-12-04T23:57:55.294Z,79.22
